createdAt,value
2016-11-05T00:00:26.592Z,99.99
2016-11-05T00:01:40.233Z,99.97
2016-11-05T00:02:53.279Z,99.97
2016-11-05T00:04:06.840Z,99.99
2016-11-05T00:05:19.927Z,99.68
2016-11-05T00:06:33.058Z,99.2
2016-11-05T00:07:46.668Z,99.99
2016-11-05T00:09:00.296Z,99.99
2016-11-05T00:10:13.357Z,99.78
2016-11-05T00:11:26.327Z,99.99
2016-11-05T00:12:39.877Z,99.99
2016-11-05T00:13:53.469Z,99.99
2016-11-05T00:15:07.017Z,99.99
2016-11-05T00:16:20.027Z,99.97
2016-11-05T00:17:33.605Z,99.99
2016-11-05T00:18:46.883Z,99.99
2016-11-05T00:20:00.513Z,99.99
2016-11-05T00:21:14.022Z,99.99
2016-11-05T00:22:26.292Z,99.99
2016-11-05T00:23:39.863Z,99.68
2016-11-05T00:24:53.444Z,99.58
2016-11-05T00:26:07.044Z,99.97
2016-11-05T00:27:19.580Z,99.99
2016-11-05T00:28:32.869Z,99.99
2016-11-05T00:29:46.497Z,99.49
2016-11-05T00:31:00.088Z,99.78
2016-11-05T00:32:13.589Z,99.68
2016-11-05T00:33:26.608Z,99.78
2016-11-05T00:35:10.751Z,99.58
2016-11-05T00:36:24.318Z,99.58
2016-11-05T00:37:37.889Z,99.78
2016-11-05T00:38:51.660Z,99.78
2016-11-05T00:40:04.738Z,99.78
2016-11-05T00:41:17.993Z,99.4
2016-11-05T00:42:31.005Z,99.68
2016-11-05T00:43:44.022Z,99.78
2016-11-05T00:44:57.033Z,99.99
2016-11-05T00:46:10.049Z,99.99
2016-11-05T00:47:23.628Z,99.78
2016-11-05T00:48:37.307Z,99.97
2016-11-05T00:49:51.046Z,99.97
2016-11-05T00:51:04.039Z,99.4
2016-11-05T00:52:17.430Z,99.97
2016-11-05T00:53:30.595Z,99.97
2016-11-05T00:54:43.931Z,99.99
2016-11-05T00:55:56.989Z,99.99
2016-11-05T00:57:10.521Z,99.99
2016-11-05T00:58:23.583Z,99.99
2016-11-05T00:59:37.274Z,99.99
2016-11-05T01:00:50.475Z,99.97
2016-11-05T01:02:03.992Z,99.99
2016-11-05T01:03:17.082Z,99.99
2016-11-05T01:04:30.693Z,99.78
2016-11-05T01:05:44.437Z,99.99
2016-11-05T01:06:58.029Z,99.99
2016-11-05T01:08:11.085Z,99.99
2016-11-05T01:09:24.924Z,99.99
2016-11-05T01:10:38.318Z,99.99
2016-11-05T01:11:51.873Z,99.99
2016-11-05T01:13:05.455Z,99.99
2016-11-05T01:14:19.099Z,99.97
2016-11-05T01:15:32.646Z,99.78
2016-11-05T01:16:45.478Z,99.78
2016-11-05T01:17:58.518Z,99.87
2016-11-05T01:19:12.069Z,99.99
2016-11-05T01:20:25.549Z,99.99
2016-11-05T01:21:39.092Z,99.49
2016-11-05T01:22:52.204Z,99.4
2016-11-05T01:24:05.296Z,99.78
2016-11-05T01:25:18.721Z,99.78
2016-11-05T01:26:32.370Z,99.58
2016-11-05T01:27:45.940Z,99.58
2016-11-05T01:28:59.048Z,99.78
2016-11-05T01:30:11.784Z,99.1
2016-11-05T01:31:25.381Z,99.49
2016-11-05T01:32:38.491Z,99.01
2016-11-05T01:33:52.051Z,99.58
2016-11-05T01:35:05.610Z,99.68
2016-11-05T01:36:19.229Z,99.3
2016-11-05T01:37:32.342Z,99.4
2016-11-05T01:38:45.988Z,99.78
2016-11-05T01:39:59.569Z,99.58
2016-11-05T01:41:13.167Z,99.87
2016-11-05T01:42:40.721Z,99.78
2016-11-05T01:43:54.275Z,99.58
2016-11-05T01:45:07.872Z,99.3
2016-11-05T01:46:21.725Z,99.97
2016-11-05T01:47:34.798Z,99.58
2016-11-05T01:48:48.290Z,99.97
2016-11-05T01:50:01.947Z,99.78
2016-11-05T01:51:15.534Z,99.58
2016-11-05T01:52:29.264Z,99.68
2016-11-05T01:53:42.296Z,99.78
2016-11-05T01:54:55.306Z,99.58
2016-11-05T01:56:08.417Z,99.97
2016-11-05T01:57:22.002Z,99.87
2016-11-05T01:58:35.603Z,99.97
2016-11-05T01:59:48.685Z,99.97
2016-11-05T02:01:33.341Z,99.99
2016-11-05T02:02:46.902Z,99.99
2016-11-05T02:04:00.448Z,99.99
2016-11-05T02:05:13.506Z,99.99
2016-11-05T02:06:26.552Z,99.82
2016-11-05T02:07:38.800Z,99.99
2016-11-05T02:08:52.372Z,99.99
2016-11-05T02:10:05.639Z,99.99
2016-11-05T02:11:19.195Z,99.99
2016-11-05T02:12:32.816Z,99.99
2016-11-05T02:13:45.984Z,99.99
2016-11-05T02:14:59.579Z,99.99
2016-11-05T02:16:13.172Z,99.99
2016-11-05T02:17:26.160Z,99.99
2016-11-05T02:18:39.297Z,99.99
2016-11-05T02:19:52.877Z,99.99
2016-11-05T02:21:06.417Z,99.99
2016-11-05T02:22:19.563Z,99.99
2016-11-05T02:23:33.196Z,99.99
2016-11-05T02:24:45.732Z,99.97
2016-11-05T02:25:59.324Z,99.99
2016-11-05T02:27:11.859Z,99.99
2016-11-05T02:28:24.849Z,99.99
2016-11-05T02:29:37.885Z,99.99
2016-11-05T02:30:51.754Z,99.99
2016-11-05T02:32:05.424Z,99.99
2016-11-05T02:33:18.468Z,99.99
2016-11-05T02:34:31.225Z,99.99
2016-11-05T02:35:44.197Z,99.99
2016-11-05T02:36:56.828Z,99.99
2016-11-05T02:38:10.429Z,99.99
2016-11-05T02:39:24.020Z,99.99
2016-11-05T02:40:36.535Z,99.99
2016-11-05T02:42:20.745Z,99.99
2016-11-05T02:43:34.126Z,99.99
2016-11-05T02:44:47.742Z,99.99
2016-11-05T02:46:00.851Z,99.99
2016-11-05T02:47:14.434Z,99.99
2016-11-05T02:48:27.179Z,99.99
2016-11-05T02:49:40.222Z,99.99
2016-11-05T02:50:52.177Z,99.99
2016-11-05T02:52:05.743Z,99.99
2016-11-05T02:53:18.226Z,99.99
2016-11-05T02:54:30.731Z,99.99
2016-11-05T02:55:44.528Z,99.99
2016-11-05T02:56:58.220Z,99.99
2016-11-05T02:58:11.017Z,99.99
2016-11-05T02:59:24.895Z,99.99
2016-11-05T03:00:38.584Z,99.99
2016-11-05T03:01:52.139Z,99.99
2016-11-05T03:03:05.751Z,99.99
2016-11-05T03:04:19.314Z,99.99
2016-11-05T03:05:32.821Z,99.99
2016-11-05T03:06:46.437Z,99.99
2016-11-05T03:08:00.084Z,99.99
2016-11-05T03:09:13.597Z,99.99
2016-11-05T03:10:26.674Z,99.99
2016-11-05T03:11:40.365Z,99.99
2016-11-05T03:12:53.908Z,99.99
2016-11-05T03:14:07.488Z,99.99
2016-11-05T03:15:20.564Z,99.99
2016-11-05T03:16:34.303Z,99.99
2016-11-05T03:17:47.950Z,99.99
2016-11-05T03:19:01.513Z,99.99
2016-11-05T03:20:15.069Z,99.99
2016-11-05T03:21:28.741Z,99.99
2016-11-05T03:22:42.353Z,99.99
2016-11-05T03:23:55.106Z,99.99
2016-11-05T03:25:08.685Z,99.99
2016-11-05T03:26:22.341Z,99.99
2016-11-05T03:27:35.944Z,99.99
2016-11-05T03:28:49.556Z,99.99
2016-11-05T03:30:03.064Z,99.99
2016-11-05T03:31:16.636Z,99.99
2016-11-05T03:32:29.921Z,99.99
2016-11-05T03:33:43.570Z,99.99
2016-11-05T03:34:57.207Z,99.99
2016-11-05T03:36:10.256Z,99.99
2016-11-05T03:37:23.894Z,99.99
2016-11-05T03:38:36.994Z,99.99
2016-11-05T03:39:50.636Z,99.99
2016-11-05T03:41:03.899Z,99.99
2016-11-05T03:42:17.640Z,99.99
2016-11-05T03:43:30.677Z,99.99
2016-11-05T03:44:44.229Z,99.99
2016-11-05T03:45:57.278Z,99.99
2016-11-05T03:47:10.320Z,99.99
2016-11-05T03:48:23.943Z,99.99
2016-11-05T03:49:37.547Z,99.99
2016-11-05T03:50:51.107Z,99.99
2016-11-05T03:52:04.430Z,99.99
2016-11-05T03:53:18.017Z,99.99
2016-11-05T03:54:31.557Z,99.99
2016-11-05T03:55:45.218Z,99.99
2016-11-05T03:56:58.247Z,99.99
2016-11-05T03:58:11.797Z,99.99
2016-11-05T03:59:25.309Z,99.99
2016-11-05T04:00:37.850Z,99.99
2016-11-05T04:01:51.422Z,99.99
2016-11-05T04:03:04.450Z,99.99
2016-11-05T04:04:17.709Z,99.99
2016-11-05T04:05:31.299Z,99.99
2016-11-05T04:06:44.919Z,99.99
2016-11-05T04:07:58.523Z,99.99
2016-11-05T04:09:12.055Z,99.99
2016-11-05T04:10:25.720Z,99.99
2016-11-05T04:11:39.286Z,99.99
2016-11-05T04:12:52.896Z,99.99
2016-11-05T04:14:06.498Z,99.99
2016-11-05T04:15:20.093Z,99.99
2016-11-05T04:16:33.174Z,99.99
2016-11-05T04:17:46.205Z,99.99
2016-11-05T04:18:59.748Z,99.99
2016-11-05T04:20:13.336Z,99.99
2016-11-05T04:21:25.945Z,99.99
2016-11-05T04:22:39.651Z,99.99
2016-11-05T04:23:52.661Z,99.99
2016-11-05T04:25:06.243Z,99.99
2016-11-05T04:26:19.812Z,99.99
2016-11-05T04:27:33.111Z,99.99
2016-11-05T04:28:46.182Z,99.99
2016-11-05T04:29:59.785Z,99.99
2016-11-05T04:31:13.343Z,99.99
2016-11-05T04:32:58.069Z,99.99
2016-11-05T04:34:10.793Z,99.99
2016-11-05T04:35:24.326Z,99.99
2016-11-05T04:36:37.973Z,99.99
2016-11-05T04:37:51.877Z,99.99
2016-11-05T04:39:05.439Z,99.99
2016-11-05T04:40:18.966Z,99.99
2016-11-05T04:41:32.588Z,99.99
2016-11-05T04:42:46.150Z,99.99
2016-11-05T04:43:59.749Z,99.99
2016-11-05T04:45:13.379Z,99.99
2016-11-05T04:46:27.010Z,99.99
2016-11-05T04:47:40.542Z,99.99
2016-11-05T04:48:52.831Z,99.99
2016-11-05T04:50:06.361Z,99.99
2016-11-05T04:51:19.939Z,99.99
2016-11-05T04:52:33.533Z,99.99
2016-11-05T04:53:46.522Z,99.99
2016-11-05T04:54:59.799Z,99.99
2016-11-05T04:56:13.333Z,99.99
2016-11-05T04:57:26.456Z,99.99
2016-11-05T04:58:39.552Z,99.99
2016-11-05T04:59:52.292Z,99.99
2016-11-05T05:01:05.926Z,99.99
2016-11-05T05:02:19.560Z,99.99
2016-11-05T05:03:33.166Z,99.99
2016-11-05T05:04:46.199Z,99.99
2016-11-05T05:05:59.835Z,99.99
2016-11-05T05:07:13.351Z,99.99
2016-11-05T05:08:26.333Z,99.99
2016-11-05T05:09:39.917Z,99.99
2016-11-05T05:10:53.494Z,99.99
2016-11-05T05:12:06.819Z,99.99
2016-11-05T05:13:19.847Z,99.99
2016-11-05T05:14:32.922Z,99.99
2016-11-05T05:15:46.486Z,99.99
2016-11-05T05:17:00.000Z,99.99
2016-11-05T05:18:13.487Z,99.99
2016-11-05T05:19:27.106Z,99.99
2016-11-05T05:20:40.256Z,99.99
2016-11-05T05:21:53.731Z,99.99
2016-11-05T05:23:06.821Z,99.99
2016-11-05T05:24:20.368Z,99.99
2016-11-05T05:25:33.935Z,99.99
2016-11-05T05:26:47.009Z,99.99
2016-11-05T05:28:00.053Z,99.99
2016-11-05T05:29:13.169Z,99.99
2016-11-05T05:30:26.712Z,99.99
2016-11-05T05:31:40.290Z,99.99
2016-11-05T05:32:53.883Z,99.99
2016-11-05T05:34:06.893Z,99.99
2016-11-05T05:35:19.894Z,99.99
2016-11-05T05:36:33.067Z,99.99
2016-11-05T05:37:46.636Z,99.99
2016-11-05T05:38:59.685Z,99.99
2016-11-05T05:40:12.717Z,99.99
2016-11-05T05:41:26.385Z,99.99
2016-11-05T05:42:39.906Z,99.99
2016-11-05T05:43:53.456Z,99.99
2016-11-05T05:45:07.040Z,99.99
2016-11-05T05:46:20.642Z,99.99
2016-11-05T05:47:33.940Z,99.99
2016-11-05T05:48:47.047Z,99.99
2016-11-05T05:50:00.141Z,99.99
2016-11-05T05:51:13.655Z,99.99
2016-11-05T05:52:26.657Z,99.99
2016-11-05T05:53:40.279Z,99.99
2016-11-05T05:54:53.790Z,99.99
2016-11-05T05:56:07.272Z,99.99
2016-11-05T05:57:20.853Z,99.99
2016-11-05T05:58:33.930Z,99.99
2016-11-05T05:59:47.726Z,99.99
2016-11-05T06:01:01.053Z,99.99
2016-11-05T06:02:13.607Z,99.99
2016-11-05T06:03:27.188Z,99.99
2016-11-05T06:04:40.834Z,99.99
2016-11-05T06:05:53.589Z,99.99
2016-11-05T06:07:07.202Z,99.99
2016-11-05T06:08:20.678Z,99.99
2016-11-05T06:09:34.300Z,99.99
2016-11-05T06:10:47.977Z,99.99
2016-11-05T06:12:01.616Z,99.99
2016-11-05T06:13:15.282Z,99.99
2016-11-05T06:14:28.656Z,99.99
2016-11-05T06:15:42.178Z,99.99
2016-11-05T06:16:55.239Z,99.99
2016-11-05T06:18:08.785Z,99.99
2016-11-05T06:19:22.446Z,99.99
2016-11-05T06:20:36.109Z,99.99
2016-11-05T06:21:49.065Z,99.99
2016-11-05T06:23:02.064Z,99.99
2016-11-05T06:24:15.077Z,99.99
2016-11-05T06:25:28.607Z,99.99
2016-11-05T06:26:41.638Z,99.99
2016-11-05T06:27:54.664Z,99.99
2016-11-05T06:29:07.700Z,99.99
2016-11-05T06:30:21.222Z,99.99
2016-11-05T06:31:34.289Z,99.99
2016-11-05T06:32:47.603Z,99.99
2016-11-05T06:34:01.125Z,99.99
2016-11-05T06:35:14.185Z,99.99
2016-11-05T06:36:26.680Z,99.99
2016-11-05T06:37:39.771Z,99.99
2016-11-05T06:38:52.888Z,99.99
2016-11-05T06:40:06.006Z,99.99
2016-11-05T06:41:19.606Z,99.99
2016-11-05T06:42:32.717Z,99.99
2016-11-05T06:43:46.315Z,99.99
2016-11-05T06:44:59.944Z,99.99
2016-11-05T06:46:13.042Z,99.99
2016-11-05T06:47:26.335Z,99.99
2016-11-05T06:48:39.935Z,99.99
2016-11-05T06:49:53.592Z,99.99
2016-11-05T06:51:06.890Z,99.99
2016-11-05T06:52:19.960Z,99.99
2016-11-05T06:53:32.728Z,99.99
2016-11-05T06:54:46.337Z,99.99
2016-11-05T06:55:59.882Z,99.99
2016-11-05T06:57:13.508Z,99.92
2016-11-05T06:58:26.833Z,99.99
2016-11-05T06:59:40.426Z,99.99
2016-11-05T07:00:53.484Z,99.92
2016-11-05T07:02:06.502Z,99.99
2016-11-05T07:03:20.051Z,99.92
2016-11-05T07:04:33.663Z,99.99
2016-11-05T07:05:47.242Z,99.63
2016-11-05T07:07:00.774Z,99.99
2016-11-05T07:08:13.838Z,99.92
2016-11-05T07:09:27.125Z,99.92
2016-11-05T07:10:40.132Z,99.54
2016-11-05T07:11:53.758Z,99.92
2016-11-05T07:13:07.388Z,99.44
2016-11-05T07:14:20.967Z,99.99
2016-11-05T07:15:34.576Z,99.34
2016-11-05T07:16:48.108Z,99.25
2016-11-05T07:18:01.177Z,99.34
2016-11-05T07:19:14.699Z,99.34
2016-11-05T07:20:28.261Z,99.63
2016-11-05T07:21:41.886Z,99.05
2016-11-05T07:22:55.027Z,98.96
2016-11-05T07:24:08.609Z,99.34
2016-11-05T07:25:22.158Z,98.48
2016-11-05T07:26:35.232Z,98.1
2016-11-05T07:27:48.924Z,98.19
2016-11-05T07:29:01.438Z,98
2016-11-05T07:30:14.972Z,98.29
2016-11-05T07:31:27.516Z,98.1
2016-11-05T07:32:41.149Z,97.91
2016-11-05T07:33:54.158Z,97.61
2016-11-05T07:35:07.706Z,97.24
2016-11-05T07:36:20.225Z,97.42
2016-11-05T07:37:33.734Z,97.14
2016-11-05T07:38:46.841Z,97.14
2016-11-05T07:39:59.372Z,97.04
2016-11-05T07:41:12.948Z,96.85
2016-11-05T07:42:26.579Z,96.66
2016-11-05T07:43:40.153Z,97.04
2016-11-05T07:44:53.272Z,96.66
2016-11-05T07:46:06.799Z,96.56
2016-11-05T07:47:20.128Z,96.75
2016-11-05T07:50:18.428Z,96.37
2016-11-05T07:51:32.020Z,96.37
2016-11-05T07:52:45.649Z,96.18
2016-11-05T07:53:58.770Z,96.27
2016-11-05T07:55:12.308Z,96.18
2016-11-05T07:56:25.967Z,95.89
2016-11-05T07:57:39.555Z,96.47
2016-11-05T07:58:53.154Z,95.89
2016-11-05T08:00:06.807Z,96.18
2016-11-05T08:01:20.367Z,96.37
2016-11-05T08:02:33.426Z,95.98
2016-11-05T08:03:46.504Z,96.56
2016-11-05T08:04:59.994Z,95.98
2016-11-05T08:06:13.653Z,95.5
2016-11-05T08:07:27.442Z,95.31
2016-11-05T08:08:40.985Z,95.12
2016-11-05T08:09:54.610Z,95.5
2016-11-05T08:11:07.740Z,94.93
2016-11-05T08:12:21.340Z,94.93
2016-11-05T08:13:34.854Z,95.03
2016-11-05T08:14:48.431Z,95.03
2016-11-05T08:16:02.025Z,95.31
2016-11-05T08:17:15.563Z,95.98
2016-11-05T08:18:29.102Z,95.31
2016-11-05T08:19:42.714Z,95.5
2016-11-05T08:20:55.188Z,95.7
2016-11-05T08:22:08.709Z,95.5
2016-11-05T08:23:21.910Z,95.7
2016-11-05T08:24:35.548Z,95.79
2016-11-05T08:25:49.139Z,96.08
2016-11-05T08:27:02.778Z,95.79
2016-11-05T08:28:15.559Z,95.98
2016-11-05T08:29:29.120Z,96.18
2016-11-05T08:30:42.700Z,95.89
2016-11-05T08:31:56.282Z,95.89
2016-11-05T08:33:09.869Z,95.5
2016-11-05T08:34:23.543Z,95.89
2016-11-05T08:35:36.524Z,95.98
2016-11-05T08:36:50.069Z,96.27
2016-11-05T08:38:03.685Z,96.18
2016-11-05T08:39:17.296Z,96.27
2016-11-05T08:40:30.366Z,96.75
2016-11-05T08:41:43.926Z,96.66
2016-11-05T08:42:57.025Z,96.75
2016-11-05T08:44:08.991Z,96.66
2016-11-05T08:45:22.275Z,96.37
2016-11-05T08:46:35.933Z,96.66
2016-11-05T08:47:49.593Z,96.85
2016-11-05T08:49:03.241Z,97.09
2016-11-05T08:50:16.862Z,97.09
2016-11-05T08:51:30.403Z,97.19
2016-11-05T08:52:43.964Z,97.24
2016-11-05T08:53:57.449Z,97.09
2016-11-05T08:55:10.513Z,97.14
2016-11-05T08:56:24.131Z,96.94
2016-11-05T08:57:37.764Z,96.94
2016-11-05T08:58:51.368Z,97.33
2016-11-05T09:00:04.997Z,96.94
2016-11-05T09:01:18.611Z,96.94
2016-11-05T09:02:32.133Z,97.42
2016-11-05T09:03:45.720Z,97.71
2016-11-05T09:04:59.291Z,97.42
2016-11-05T09:06:12.377Z,97.24
2016-11-05T09:07:25.999Z,97.61
2016-11-05T09:08:39.570Z,97.33
2016-11-05T09:09:53.129Z,97.14
2016-11-05T09:11:06.667Z,97.33
2016-11-05T09:12:20.281Z,97.24
2016-11-05T09:13:33.325Z,97.61
2016-11-05T09:14:46.453Z,97.24
2016-11-05T09:15:59.496Z,97.42
2016-11-05T09:17:13.058Z,97.33
2016-11-05T09:18:26.665Z,97.42
2016-11-05T09:19:40.285Z,97.42
2016-11-05T09:20:53.295Z,97.24
2016-11-05T09:22:06.812Z,97.14
2016-11-05T09:23:19.871Z,97.14
2016-11-05T09:24:33.467Z,97.42
2016-11-05T09:25:47.064Z,96.89
2016-11-05T09:27:00.704Z,96.7
2016-11-05T09:28:14.278Z,97.19
2016-11-05T09:29:27.334Z,96.8
2016-11-05T09:30:40.382Z,96.99
2016-11-05T09:31:53.942Z,97.19
2016-11-05T09:33:07.465Z,96.8
2016-11-05T09:34:20.993Z,96.42
2016-11-05T09:35:34.300Z,96.7
2016-11-05T09:36:47.876Z,96.27
2016-11-05T09:38:01.441Z,96.32
2016-11-05T09:39:15.027Z,96.22
2016-11-05T09:40:28.595Z,96.7
2016-11-05T09:41:41.667Z,96.7
2016-11-05T09:42:54.840Z,96.51
2016-11-05T09:44:08.413Z,96.47
2016-11-05T09:45:22.148Z,96.32
2016-11-05T09:46:35.245Z,96.37
2016-11-05T09:47:48.960Z,96.56
2016-11-05T09:49:02.273Z,95.94
2016-11-05T09:50:15.840Z,96.17
2016-11-05T09:51:29.477Z,95.98
2016-11-05T09:52:42.558Z,95.98
2016-11-05T09:54:27.300Z,96.27
2016-11-05T09:55:40.912Z,96.47
2016-11-05T09:56:54.298Z,96.17
2016-11-05T09:58:07.365Z,96.37
2016-11-05T09:59:20.941Z,95.98
2016-11-05T10:00:34.580Z,96.27
2016-11-05T10:01:47.886Z,96.66
2016-11-05T10:03:01.468Z,96.08
2016-11-05T10:04:15.054Z,95.79
2016-11-05T10:05:28.074Z,96.85
2016-11-05T10:06:41.124Z,97.04
2016-11-05T10:07:54.704Z,96.56
2016-11-05T10:09:08.307Z,96.17
2016-11-05T10:10:22.123Z,96.22
2016-11-05T10:11:35.723Z,96.27
2016-11-05T10:12:49.271Z,96.66
2016-11-05T10:14:02.844Z,96.56
2016-11-05T10:15:15.895Z,96.75
2016-11-05T10:16:29.027Z,96.47
2016-11-05T10:17:42.603Z,95.79
2016-11-05T10:18:56.197Z,95.98
2016-11-05T10:20:09.840Z,95.31
2016-11-05T10:21:23.401Z,95.12
2016-11-05T10:22:36.528Z,95.98
2016-11-05T10:23:49.993Z,95.89
2016-11-05T10:25:03.602Z,95.4
2016-11-05T10:26:17.210Z,95.55
2016-11-05T10:27:30.250Z,95.65
2016-11-05T10:28:43.827Z,95.36
2016-11-05T10:29:56.838Z,95.17
2016-11-05T10:31:10.430Z,95.17
2016-11-05T10:32:23.449Z,95.26
2016-11-05T10:33:36.937Z,95.55
2016-11-05T10:34:49.960Z,95.65
2016-11-05T10:36:03.538Z,95.89
2016-11-05T10:37:16.608Z,95.89
2016-11-05T10:38:29.924Z,96.03
2016-11-05T10:39:43.552Z,95.7
2016-11-05T10:40:56.085Z,95.84
2016-11-05T10:42:09.641Z,95.94
2016-11-05T10:43:22.895Z,95.65
2016-11-05T10:44:35.933Z,95.17
2016-11-05T10:45:48.394Z,95.55
2016-11-05T10:47:01.437Z,94.78
2016-11-05T10:48:15.087Z,95.36
2016-11-05T10:49:28.649Z,94.88
2016-11-05T10:50:41.717Z,94.68
2016-11-05T10:51:55.345Z,94.88
2016-11-05T10:53:08.377Z,95.07
2016-11-05T10:54:21.456Z,94.98
2016-11-05T10:55:34.494Z,94.98
2016-11-05T10:56:48.034Z,94.68
2016-11-05T10:58:01.667Z,94.68
2016-11-05T10:59:15.258Z,93.63
2016-11-05T11:00:28.049Z,94.59
2016-11-05T11:01:41.173Z,94.06
2016-11-05T11:02:54.180Z,93.38
2016-11-05T11:04:07.809Z,93.68
2016-11-05T11:05:20.901Z,93.96
2016-11-05T11:06:34.451Z,93.96
2016-11-05T11:07:47.484Z,93.29
2016-11-05T11:09:00.796Z,93.19
2016-11-05T11:10:14.418Z,92.95
2016-11-05T11:11:27.248Z,92.95
2016-11-05T11:12:39.268Z,92.18
2016-11-05T11:13:52.891Z,93.19
2016-11-05T11:15:06.544Z,93.38
2016-11-05T11:16:19.554Z,93.33
2016-11-05T11:17:33.136Z,93.19
2016-11-05T11:18:46.767Z,93.19
2016-11-05T11:20:00.065Z,93.05
2016-11-05T11:21:13.627Z,92.38
2016-11-05T11:22:26.669Z,92.08
2016-11-05T11:23:40.018Z,92.38
2016-11-05T11:24:53.707Z,92.57
2016-11-05T11:26:06.745Z,92.66
2016-11-05T11:27:20.269Z,91.99
2016-11-05T11:28:33.777Z,92.08
2016-11-05T11:29:46.905Z,92.57
2016-11-05T11:31:00.543Z,92.66
2016-11-05T11:32:14.111Z,92.66
2016-11-05T11:33:27.116Z,92.47
2016-11-05T11:35:11.819Z,92.18
2016-11-05T11:36:25.429Z,92.18
2016-11-05T11:37:38.724Z,92.47
2016-11-05T11:38:52.326Z,92.57
2016-11-05T11:40:05.601Z,93.24
2016-11-05T11:41:18.678Z,93.96
2016-11-05T11:42:32.258Z,93.38
2016-11-05T11:43:45.867Z,93.33
2016-11-05T11:44:59.556Z,92.95
2016-11-05T11:46:13.127Z,91.89
2016-11-05T11:47:26.746Z,91.94
2016-11-05T11:48:40.387Z,91.84
2016-11-05T11:49:53.976Z,91.94
2016-11-05T11:51:07.677Z,91.55
2016-11-05T11:52:21.030Z,91.55
2016-11-05T11:53:34.595Z,91.36
2016-11-05T11:54:47.726Z,90.78
2016-11-05T11:56:01.270Z,90.92
2016-11-05T11:57:14.960Z,90.44
2016-11-05T11:58:28.015Z,89.43
2016-11-05T11:59:41.067Z,89.82
2016-11-05T12:00:54.672Z,89.67
2016-11-05T12:02:08.005Z,89.77
2016-11-05T12:03:21.306Z,89.48
2016-11-05T12:04:34.931Z,90.06
2016-11-05T12:05:48.471Z,90.25
2016-11-05T12:07:01.998Z,90.2
2016-11-05T12:08:15.628Z,89.96
2016-11-05T12:09:29.642Z,89.48
2016-11-05T12:10:43.251Z,88.85
2016-11-05T12:11:56.312Z,89.39
2016-11-05T12:13:09.370Z,89.14
2016-11-05T12:14:22.958Z,89
2016-11-05T12:15:36.248Z,88.81
2016-11-05T12:16:49.783Z,88.85
2016-11-05T12:18:02.588Z,88.51
2016-11-05T12:19:16.083Z,88.37
2016-11-05T12:20:29.181Z,89.14
2016-11-05T12:21:42.742Z,89.33
2016-11-05T12:22:56.337Z,89.14
2016-11-05T12:24:09.986Z,88.95
2016-11-05T12:25:23.549Z,89.48
2016-11-05T12:27:08.233Z,89.67
2016-11-05T12:28:21.794Z,90.54
2016-11-05T12:29:34.769Z,89.96
2016-11-05T12:30:48.377Z,90.25
2016-11-05T12:32:01.878Z,90.06
2016-11-05T12:33:15.411Z,89.81
2016-11-05T12:34:29.061Z,89.04
2016-11-05T12:35:42.591Z,88.75
2016-11-05T12:36:55.619Z,88.46
2016-11-05T12:38:09.220Z,88.65
2016-11-05T12:39:22.833Z,88.65
2016-11-05T12:40:36.352Z,88.56
2016-11-05T12:41:49.351Z,88.17
2016-11-05T12:43:02.891Z,87.93
2016-11-05T12:44:15.931Z,88.02
2016-11-05T12:45:29.502Z,87.54
2016-11-05T12:46:43.135Z,87.74
2016-11-05T12:49:41.480Z,88.02
2016-11-05T12:50:55.368Z,87.64
2016-11-05T12:52:08.130Z,88.02
2016-11-05T12:53:21.684Z,88.6
2016-11-05T12:54:34.232Z,89.23
2016-11-05T12:55:48.023Z,89.43
2016-11-05T12:57:01.627Z,89.43
2016-11-05T12:58:15.235Z,89.81
2016-11-05T12:59:28.856Z,89.91
2016-11-05T13:00:42.498Z,89.33
2016-11-05T13:01:55.513Z,89.14
2016-11-05T13:03:09.137Z,88.79
2016-11-05T13:04:22.215Z,87.45
2016-11-05T13:05:35.783Z,87.4
2016-11-05T13:06:49.372Z,86.62
2016-11-05T13:08:01.921Z,85.99
2016-11-05T13:09:15.518Z,85.41
2016-11-05T13:10:29.091Z,84.83
2016-11-05T13:11:42.755Z,84.97
2016-11-05T13:12:56.368Z,83.52
2016-11-05T13:14:09.906Z,83.75
2016-11-05T13:15:23.124Z,83.95
2016-11-05T13:16:36.271Z,83.37
2016-11-05T13:17:49.871Z,82.54
2016-11-05T13:19:03.284Z,82.25
2016-11-05T13:20:16.833Z,81.77
2016-11-05T13:21:30.374Z,81.42
2016-11-05T13:22:43.617Z,81.62
2016-11-05T13:23:56.355Z,81.52
2016-11-05T13:25:09.153Z,81.71
2016-11-05T13:26:22.774Z,80.65
2016-11-05T13:27:36.276Z,81.17
2016-11-05T13:28:49.850Z,80.74
2016-11-05T13:30:02.867Z,80.74
2016-11-05T13:31:15.844Z,80.74
2016-11-05T13:32:28.914Z,80.65
2016-11-05T13:33:42.532Z,80.36
2016-11-05T13:34:56.220Z,80.69
2016-11-05T13:36:09.742Z,79.91
2016-11-05T13:37:23.334Z,79.82
2016-11-05T13:38:36.939Z,80.2
2016-11-05T13:39:49.989Z,80.65
2016-11-05T13:41:03.058Z,80.46
2016-11-05T13:42:16.629Z,80.74
2016-11-05T13:43:29.707Z,80.55
2016-11-05T13:44:42.766Z,81.23
2016-11-05T13:45:56.477Z,81.42
2016-11-05T13:47:09.515Z,81.57
2016-11-05T13:48:22.621Z,82.25
2016-11-05T13:49:35.676Z,82.11
2016-11-05T13:50:48.752Z,82.35
2016-11-05T13:52:01.301Z,82.11
2016-11-05T13:53:14.351Z,82.79
2016-11-05T13:54:27.895Z,83.08
2016-11-05T13:56:12.050Z,83.37
2016-11-05T13:57:25.674Z,83.56
2016-11-05T13:58:39.301Z,83.08
2016-11-05T13:59:52.869Z,82.93
2016-11-05T14:01:06.499Z,83.22
2016-11-05T14:02:20.022Z,83.66
2016-11-05T14:03:33.574Z,83.85
2016-11-05T14:04:47.312Z,84.43
2016-11-05T14:06:00.826Z,84.63
2016-11-05T14:07:13.778Z,83.51
2016-11-05T14:08:27.512Z,82.68
2016-11-05T14:09:41.057Z,82
2016-11-05T14:10:54.686Z,80.88
2016-11-05T14:12:07.680Z,80.69
2016-11-05T14:13:21.262Z,81.07
2016-11-05T14:14:34.847Z,81.62
2016-11-05T14:16:19.568Z,81.62
2016-11-05T14:17:33.248Z,82.58
2016-11-05T14:18:46.519Z,81.48
2016-11-05T14:20:00.096Z,81.52
2016-11-05T14:21:13.603Z,81.52
2016-11-05T14:22:27.174Z,82.29
2016-11-05T14:23:40.556Z,82.73
2016-11-05T14:24:54.117Z,84.33
2016-11-05T14:26:07.411Z,83.81
2016-11-05T14:27:21.123Z,83.66
2016-11-05T14:28:34.729Z,83.7
2016-11-05T14:29:48.038Z,83.7
2016-11-05T14:31:01.567Z,83.7
2016-11-05T14:32:14.608Z,84.05
2016-11-05T14:33:28.048Z,83.56
2016-11-05T14:34:41.056Z,82.64
2016-11-05T14:35:54.656Z,82.93
2016-11-05T14:37:08.284Z,83.12
2016-11-05T14:38:21.335Z,82.83
2016-11-05T14:39:34.896Z,83.12
2016-11-05T14:40:47.992Z,83.7
2016-11-05T14:42:01.545Z,84.14
2016-11-05T14:43:15.142Z,84.82
2016-11-05T14:44:28.646Z,84.58
2016-11-05T14:45:42.284Z,84.63
2016-11-05T14:46:55.646Z,85.01
2016-11-05T14:48:09.241Z,85.3
2016-11-05T14:49:22.863Z,84.33
2016-11-05T14:50:36.555Z,84.82
2016-11-05T14:51:50.173Z,85.49
2016-11-05T14:53:03.007Z,86.22
2016-11-05T14:54:16.122Z,86.86
2016-11-05T14:55:29.706Z,87.24
2016-11-05T14:58:27.992Z,87.05
2016-11-05T14:59:41.067Z,87.29
2016-11-05T15:00:54.679Z,86.42
2016-11-05T15:02:08.248Z,86.13
2016-11-05T15:03:21.857Z,85.94
2016-11-05T15:04:34.897Z,86.27
2016-11-05T15:05:48.490Z,85.4
2016-11-05T15:07:01.008Z,85.3
2016-11-05T15:08:15.033Z,86.41
2016-11-05T15:09:28.369Z,86.27
2016-11-05T15:10:41.179Z,86.65
2016-11-05T15:11:54.167Z,87.33
2016-11-05T15:13:07.828Z,87.96
2016-11-05T15:14:21.380Z,88.25
2016-11-05T15:15:34.948Z,88.15
2016-11-05T15:16:48.555Z,88.59
2016-11-05T15:18:02.161Z,89.37
2016-11-05T15:19:14.977Z,89.27
2016-11-05T15:20:28.658Z,89.75
2016-11-05T15:21:41.690Z,91.01
2016-11-05T15:22:55.338Z,91.35
2016-11-05T15:24:08.966Z,90.58
2016-11-05T15:25:22.613Z,90.96
2016-11-05T15:26:36.264Z,91.11
2016-11-05T15:27:48.741Z,91.35
2016-11-05T15:29:02.325Z,91.06
2016-11-05T15:30:15.889Z,90.29
2016-11-05T15:31:29.513Z,89.65
2016-11-05T15:32:43.190Z,90.05
2016-11-05T15:33:56.577Z,89.47
2016-11-05T15:35:09.601Z,90.05
2016-11-05T15:36:23.162Z,90.81
2016-11-05T15:37:36.235Z,90.81
2016-11-05T15:38:49.862Z,90.43
2016-11-05T15:40:03.441Z,90.33
2016-11-05T15:41:17.119Z,91.59
2016-11-05T15:42:30.706Z,92.12
2016-11-05T15:43:44.279Z,93.47
2016-11-05T15:44:57.864Z,93.43
2016-11-05T15:46:11.454Z,93.52
2016-11-05T15:47:25.010Z,93.13
2016-11-05T15:48:38.636Z,92.17
2016-11-05T15:49:52.397Z,92.7
2016-11-05T15:51:05.970Z,92.36
2016-11-05T15:52:18.762Z,92.7
2016-11-05T15:53:32.096Z,93.04
2016-11-05T15:54:45.636Z,93.52
2016-11-05T15:55:59.002Z,93.33
2016-11-05T15:57:11.264Z,93.81